Terminal Aerodrome Forecast
Issued by NWS

Home | Current Version | Previous Version | Text Only | Print | Product List | Glossary On
Versions: 1 2 3 4 5 6 7 8 9 10 11 12 13 14 15 16
000
FTUS44 KLZK 181700 RRA
TAFLIT
TAF
KLIT 181741Z 1818/1918 06004KT 6SM BR OVC007
      TEMPO 1818/1821 4SM BR OVC005
     FM190100 05004KT 5SM BR OVC005
     FM190800 05004KT 4SM BR OVC004
      TEMPO 1909/1913 1SM -DZ BR OVC002
     FM191600 05006KT 6SM BR VCSH OVC007=

USA.gov is the U.S. government's official web portal to all federal, state and local government web resources and services.